Almirante Brown, Argentina
Current Conditions -  °F | °C
As of 12:13 PM on Monday 24 Nov 2014 (Local Time) from SAEZ Reporting Station
Thunderstorm Thunderstorm  
Wind Chill: 70°   Ceiling: 1000
Heat Index: 70°   Visibility: 3mi
Dew Point: 64°   Wind: 8mph
Humidity: 83%   Direction: 340°NNW
Pressure: 29.8"   Gusts: NA
Location:  34.8°S, 58.38°W
Report Text: SAEZ 241513Z 34007KT 5000 -TSRA SCT004 BKN010 FEW050CB OVC08021/18 Q1009
Loading
Personal Weather Stations






























Interactive Weather Map New forecast layout! Learn more

10-Day Weather Forecast

Advertisements
Track Severe Weather on mobile